createdAt,value
2023-03-05T00:01:27.846Z,0.55
2023-03-05T00:03:56.448Z,0.65
2023-03-05T00:06:26.197Z,0.51
2023-03-05T00:08:53.632Z,0.39
2023-03-05T00:11:21.155Z,0.49
2023-03-05T00:13:47.988Z,0.41
2023-03-05T00:16:16.237Z,0.40
2023-03-05T00:18:43.649Z,0.55
2023-03-05T00:21:25.423Z,0.39
2023-03-05T00:23:53.767Z,0.23
2023-03-05T00:26:23.008Z,0.69
2023-03-05T00:28:50.074Z,0.44
2023-03-05T00:31:17.685Z,0.29
2023-03-05T00:33:44.464Z,0.19
2023-03-05T00:36:11.844Z,0.25
2023-03-05T00:38:38.483Z,0.03
2023-03-05T00:41:05.329Z,0.03
2023-03-05T00:43:32.002Z,-0.03
2023-03-05T00:45:58.849Z,0.10
2023-03-05T00:48:25.578Z,0.10
2023-03-05T00:50:55.922Z,-0.01
2023-03-05T00:53:22.798Z,0.05
2023-03-05T00:55:49.470Z,0.03
2023-03-05T00:58:16.216Z,0.12
2023-03-05T01:00:42.975Z,0.45
2023-03-05T01:03:09.865Z,0.34
2023-03-05T01:05:36.591Z,0.13
2023-03-05T01:08:05.469Z,0.20
2023-03-05T01:10:32.203Z,0.65
2023-03-05T01:12:59.660Z,0.43
2023-03-05T01:15:26.457Z,0.37
2023-03-05T01:17:53.393Z,0.10
2023-03-05T01:20:21.920Z,0.15
2023-03-05T01:22:49.308Z,0.36
2023-03-05T01:25:17.461Z,0.66
2023-03-05T01:27:44.639Z,0.45
2023-03-05T01:30:13.419Z,0.53
2023-03-05T01:32:40.517Z,0.32
2023-03-05T01:35:07.782Z,0.69
2023-03-05T01:37:34.578Z,0.69
2023-03-05T01:40:01.533Z,0.54
2023-03-05T01:42:28.394Z,0.57
2023-03-05T01:45:08.930Z,0.66
2023-03-05T01:47:36.652Z,0.67
2023-03-05T01:50:05.209Z,0.50
2023-03-05T01:52:35.639Z,0.76
2023-03-05T01:55:12.422Z,0.89
2023-03-05T01:57:55.965Z,0.46
2023-03-05T02:00:28.176Z,0.81
2023-03-05T02:02:57.331Z,0.98
2023-03-05T02:05:29.998Z,1.09
2023-03-05T02:08:03.022Z,0.62
2023-03-05T02:10:36.908Z,0.87
2023-03-05T02:13:10.748Z,1.06
2023-03-05T02:15:38.387Z,0.62
2023-03-05T02:18:06.680Z,0.60
2023-03-05T02:20:52.612Z,0.39
2023-03-05T02:23:21.351Z,0.30
2023-03-05T02:25:48.497Z,0.45
2023-03-05T02:28:40.845Z,0.57
2023-03-05T02:31:24.545Z,1.19
2023-03-05T02:33:52.658Z,0.52
2023-03-05T02:36:20.045Z,0.90
2023-03-05T02:38:46.951Z,0.38
2023-03-05T02:41:14.811Z,0.33
2023-03-05T02:43:42.285Z,0.32
2023-03-05T02:46:09.430Z,0.31
2023-03-05T02:48:36.462Z,0.26
2023-03-05T02:51:05.810Z,0.58
2023-03-05T02:53:32.616Z,0.28
2023-03-05T02:55:59.273Z,0.27
2023-03-05T02:58:25.929Z,0.26
2023-03-05T03:00:52.577Z,0.29
2023-03-05T03:03:19.482Z,0.24
2023-03-05T03:05:46.233Z,0.28
2023-03-05T03:08:12.852Z,0.46
2023-03-05T03:10:39.539Z,0.38
2023-03-05T03:13:06.314Z,0.44
2023-03-05T03:15:33.018Z,0.43
2023-03-05T03:17:59.634Z,0.42
2023-03-05T03:20:26.343Z,0.76
2023-03-05T03:22:53.677Z,0.75
2023-03-05T03:25:22.567Z,0.62
2023-03-05T03:27:49.545Z,0.58
2023-03-05T03:30:16.455Z,0.60
2023-03-05T03:32:43.185Z,1.05
2023-03-05T03:35:11.406Z,0.94
2023-03-05T03:37:38.160Z,0.94
2023-03-05T03:40:06.024Z,1.16
2023-03-05T03:42:32.793Z,0.96
2023-03-05T03:44:59.420Z,0.78
2023-03-05T03:47:26.113Z,0.94
2023-03-05T03:49:55.712Z,1.00
2023-03-05T03:52:22.415Z,0.86
2023-03-05T03:54:50.050Z,1.01
2023-03-05T03:57:16.753Z,0.94
2023-03-05T03:59:43.391Z,0.97
2023-03-05T04:02:10.085Z,0.89
2023-03-05T04:04:36.751Z,0.96
2023-03-05T04:07:03.453Z,1.14
2023-03-05T04:09:30.096Z,0.80
2023-03-05T04:11:56.711Z,0.89
2023-03-05T04:14:23.328Z,0.86
2023-03-05T04:16:50.332Z,0.95
2023-03-05T04:19:17.094Z,0.70
2023-03-05T04:21:43.759Z,1.02
2023-03-05T04:24:10.432Z,0.89
2023-03-05T04:26:37.236Z,0.76
2023-03-05T04:29:03.990Z,0.69
2023-03-05T04:31:30.669Z,0.88
2023-03-05T04:33:57.325Z,0.63
2023-03-05T04:36:24.115Z,0.76
2023-03-05T04:38:50.822Z,0.82
2023-03-05T04:41:17.514Z,0.70
2023-03-05T04:43:44.142Z,0.90
2023-03-05T04:46:10.783Z,1.09
2023-03-05T04:48:37.460Z,0.99
2023-03-05T04:51:04.349Z,1.00
2023-03-05T04:53:31.027Z,0.84
2023-03-05T04:55:57.732Z,0.83
2023-03-05T04:58:24.354Z,0.86
2023-03-05T05:00:51.417Z,0.79
2023-03-05T05:03:18.144Z,0.90
2023-03-05T05:05:44.899Z,0.83
2023-03-05T05:08:11.508Z,0.88
2023-03-05T05:10:38.174Z,0.89
2023-03-05T05:13:04.973Z,1.25
2023-03-05T05:15:31.680Z,1.29
2023-03-05T05:17:58.792Z,0.82
2023-03-05T05:20:25.426Z,0.76
2023-03-05T05:22:52.071Z,0.80
2023-03-05T05:25:18.779Z,0.76
2023-03-05T05:27:45.383Z,0.76
2023-03-05T05:30:12.623Z,0.80
2023-03-05T05:32:39.395Z,1.00
2023-03-05T05:35:06.642Z,0.83
2023-03-05T05:37:33.481Z,0.94
2023-03-05T05:40:00.238Z,1.13
2023-03-05T05:42:26.893Z,0.92
2023-03-05T05:44:53.526Z,1.05
2023-03-05T05:47:20.348Z,1.03
2023-03-05T05:49:47.353Z,1.17
2023-03-05T05:52:14.170Z,1.06
2023-03-05T05:54:40.926Z,1.02
2023-03-05T05:57:08.354Z,1.01
2023-03-05T05:59:35.150Z,1.09
2023-03-05T06:02:01.878Z,1.12
2023-03-05T06:04:28.611Z,1.44
2023-03-05T06:06:55.456Z,1.38
2023-03-05T06:09:22.347Z,1.16
2023-03-05T06:11:48.972Z,1.34
2023-03-05T06:14:15.720Z,1.13
2023-03-05T06:16:42.591Z,1.41
2023-03-05T06:19:12.263Z,1.38
2023-03-05T06:21:39.631Z,1.33
2023-03-05T06:24:06.843Z,1.22
2023-03-05T06:26:33.517Z,1.36
2023-03-05T06:29:00.209Z,1.44
2023-03-05T06:31:28.329Z,1.42
2023-03-05T06:33:57.994Z,1.33
2023-03-05T06:36:26.071Z,1.63
2023-03-05T06:38:53.616Z,1.29
2023-03-05T06:41:26.575Z,1.41
2023-03-05T06:43:53.730Z,1.44
2023-03-05T06:46:25.836Z,1.46
2023-03-05T06:48:55.751Z,1.60
2023-03-05T06:51:25.368Z,1.47
2023-03-05T06:53:52.945Z,1.57
2023-03-05T06:56:20.428Z,1.40
2023-03-05T06:58:49.589Z,1.52
2023-03-05T07:01:16.547Z,1.64
2023-03-05T07:03:44.028Z,1.75
2023-03-05T07:06:13.698Z,1.60
2023-03-05T07:08:40.437Z,1.68
2023-03-05T07:11:20.919Z,1.73
2023-03-05T07:13:48.405Z,1.63
2023-03-05T07:16:21.398Z,1.80
2023-03-05T07:18:49.314Z,1.61
2023-03-05T07:21:19.849Z,1.62
2023-03-05T07:23:47.247Z,1.53
2023-03-05T07:26:15.514Z,1.62
2023-03-05T07:28:42.735Z,1.67
2023-03-05T07:31:14.349Z,1.81
2023-03-05T07:33:41.603Z,1.73
2023-03-05T07:36:09.218Z,1.70
2023-03-05T07:38:39.263Z,1.88
2023-03-05T07:41:09.466Z,1.77
2023-03-05T07:43:36.282Z,2.09
2023-03-05T07:46:08.235Z,1.90
2023-03-05T07:48:35.458Z,1.85
2023-03-05T07:51:14.294Z,1.83
2023-03-05T07:53:41.664Z,2.01
2023-03-05T07:56:08.680Z,2.06
2023-03-05T07:58:35.444Z,1.88
2023-03-05T08:01:02.177Z,1.80
2023-03-05T08:03:28.921Z,1.94
2023-03-05T08:05:55.666Z,2.19
2023-03-05T08:08:25.488Z,2.13
2023-03-05T08:10:52.148Z,1.97
2023-03-05T08:13:18.806Z,2.14
2023-03-05T08:15:45.529Z,2.16
2023-03-05T08:18:12.162Z,2.12
2023-03-05T08:20:38.798Z,2.44
2023-03-05T08:23:05.485Z,2.44
2023-03-05T08:25:32.224Z,2.44
2023-03-05T08:27:58.839Z,2.20
2023-03-05T08:30:25.708Z,2.35
2023-03-05T08:32:52.439Z,2.18
2023-03-05T08:35:19.154Z,2.21
2023-03-05T08:37:45.849Z,2.10
2023-03-05T08:40:12.884Z,2.11
2023-03-05T08:42:39.521Z,2.25
2023-03-05T08:45:06.928Z,2.33
2023-03-05T08:47:33.628Z,2.24
2023-03-05T08:50:00.262Z,2.43
2023-03-05T08:52:26.917Z,2.44
2023-03-05T08:54:53.549Z,2.36
2023-03-05T08:57:20.152Z,2.45
2023-03-05T08:59:46.877Z,2.42
2023-03-05T09:02:13.901Z,2.52
2023-03-05T09:04:41.162Z,2.49
2023-03-05T09:07:07.841Z,2.94
2023-03-05T09:09:34.593Z,2.82
2023-03-05T09:12:02.321Z,2.64
2023-03-05T09:14:29.537Z,2.50
2023-03-05T09:16:57.384Z,2.74
2023-03-05T09:19:24.728Z,2.83
2023-03-05T09:21:51.677Z,3.03
2023-03-05T09:24:18.423Z,2.97
2023-03-05T09:26:45.332Z,3.02
2023-03-05T09:29:12.014Z,3.31
2023-03-05T09:31:39.258Z,3.40
2023-03-05T09:34:06.867Z,3.33
2023-03-05T09:36:33.700Z,3.32
2023-03-05T09:39:00.334Z,3.28
2023-03-05T09:41:54.146Z,3.09
2023-03-05T09:44:51.391Z,3.03
2023-03-05T09:47:50.292Z,3.09
2023-03-05T09:50:28.703Z,2.96
2023-03-05T09:53:03.157Z,3.15
2023-03-05T09:55:43.983Z,3.31
2023-03-05T09:58:25.818Z,3.32
2023-03-05T10:01:04.005Z,3.43
2023-03-05T10:03:40.906Z,3.60
2023-03-05T10:06:16.325Z,3.57
2023-03-05T10:09:00.492Z,3.42
2023-03-05T10:12:06.112Z,3.67
2023-03-05T10:14:36.183Z,3.55
2023-03-05T10:17:18.068Z,3.74
2023-03-05T10:20:04.333Z,3.98
2023-03-05T10:23:03.039Z,3.64
2023-03-05T10:25:57.678Z,3.69
2023-03-05T10:28:42.938Z,3.75
2023-03-05T10:31:09.621Z,3.96
2023-03-05T10:34:06.925Z,3.94
2023-03-05T10:36:49.384Z,3.86
2023-03-05T10:39:40.080Z,4.08
2023-03-05T10:42:31.441Z,3.89
2023-03-05T10:45:14.161Z,3.94
2023-03-05T10:47:47.061Z,4.39
2023-03-05T10:50:37.999Z,3.94
2023-03-05T10:53:17.554Z,4.01
2023-03-05T10:55:44.304Z,4.22
2023-03-05T10:58:17.093Z,4.26
2023-03-05T11:01:04.480Z,4.06
2023-03-05T11:04:14.877Z,3.90
2023-03-05T11:06:43.888Z,4.14
2023-03-05T11:09:19.232Z,4.10
2023-03-05T11:12:04.764Z,3.86
2023-03-05T11:14:32.622Z,4.04
2023-03-05T11:17:01.009Z,3.78
2023-03-05T11:19:30.373Z,3.85
2023-03-05T11:22:16.363Z,3.83
2023-03-05T11:24:44.262Z,3.68
2023-03-05T11:27:28.312Z,3.57
2023-03-05T11:29:55.020Z,3.89
2023-03-05T11:32:26.139Z,4.06
2023-03-05T11:34:54.585Z,3.91
2023-03-05T11:37:31.430Z,3.96
2023-03-05T11:40:10.390Z,3.87
2023-03-05T11:42:40.514Z,3.77
2023-03-05T11:45:16.191Z,4.00
2023-03-05T11:47:55.606Z,3.99
2023-03-05T11:50:26.350Z,3.98
2023-03-05T11:52:57.599Z,3.80
2023-03-05T11:55:36.737Z,4.00
2023-03-05T11:58:24.974Z,3.88
2023-03-05T12:00:53.769Z,3.86
2023-03-05T12:03:34.153Z,4.25
2023-03-05T12:06:09.391Z,5.11
2023-03-05T12:08:45.198Z,5.31
2023-03-05T12:11:28.933Z,5.27
2023-03-05T12:14:13.901Z,5.38
2023-03-05T12:17:11.982Z,5.39
2023-03-05T12:20:00.113Z,5.04
2023-03-05T12:22:46.969Z,4.58
2023-03-05T12:25:39.696Z,4.65
2023-03-05T12:28:31.750Z,4.94
2023-03-05T12:31:48.036Z,4.61
2023-03-05T12:34:36.532Z,4.82
2023-03-05T12:37:03.419Z,4.60
2023-03-05T12:39:45.273Z,4.53
2023-03-05T12:42:30.094Z,4.60
2023-03-05T12:45:12.119Z,5.00
2023-03-05T12:47:40.665Z,4.79
2023-03-05T12:50:29.273Z,5.20
2023-03-05T12:53:12.205Z,5.01
2023-03-05T12:55:44.742Z,5.40
2023-03-05T12:58:49.815Z,5.70
2023-03-05T13:01:45.519Z,5.63
2023-03-05T13:04:24.612Z,5.61
2023-03-05T13:07:12.005Z,5.46
2023-03-05T13:09:38.774Z,4.97
2023-03-05T13:12:12.994Z,5.26
2023-03-05T13:14:42.396Z,5.13
2023-03-05T13:17:24.211Z,4.85
2023-03-05T13:19:51.004Z,4.72
2023-03-05T13:22:20.520Z,4.51
2023-03-05T13:24:47.222Z,4.47
2023-03-05T13:27:30.373Z,4.63
2023-03-05T13:29:56.993Z,4.54
2023-03-05T13:32:30.433Z,4.51
2023-03-05T13:34:59.476Z,4.39
2023-03-05T13:37:28.218Z,4.53
2023-03-05T13:40:20.256Z,4.51
2023-03-05T13:42:47.007Z,4.35
2023-03-05T13:45:27.249Z,4.46
2023-03-05T13:47:56.559Z,4.64
2023-03-05T13:50:27.259Z,4.65
2023-03-05T13:52:54.459Z,4.75
2023-03-05T13:55:21.569Z,4.45
2023-03-05T13:57:51.295Z,4.35
2023-03-05T14:00:24.510Z,4.26
2023-03-05T14:02:51.865Z,4.14
2023-03-05T14:05:18.960Z,4.45
2023-03-05T14:07:51.304Z,4.21
2023-03-05T14:10:33.264Z,4.28
2023-03-05T14:13:03.959Z,4.28
2023-03-05T14:15:33.478Z,3.94
2023-03-05T14:18:19.505Z,3.94
2023-03-05T14:21:01.297Z,3.80
2023-03-05T14:23:46.050Z,3.65
2023-03-05T14:26:18.836Z,3.65
2023-03-05T14:29:11.488Z,3.54
2023-03-05T14:31:47.120Z,3.57
2023-03-05T14:34:28.498Z,3.75
2023-03-05T14:36:58.492Z,3.69
2023-03-05T14:39:45.240Z,4.13
2023-03-05T14:42:30.317Z,4.03
2023-03-05T14:45:00.061Z,3.76
2023-03-05T14:47:27.976Z,3.60
2023-03-05T14:49:54.678Z,3.86
2023-03-05T14:52:24.439Z,3.83
2023-03-05T14:54:51.847Z,4.11
2023-03-05T14:57:22.640Z,3.94
2023-03-05T14:59:49.390Z,3.56
2023-03-05T15:02:18.417Z,3.69
2023-03-05T15:04:45.185Z,3.57
2023-03-05T15:07:22.782Z,3.32
2023-03-05T15:09:49.580Z,3.41
2023-03-05T15:12:16.771Z,3.50
2023-03-05T15:14:43.914Z,3.43
2023-03-05T15:17:16.869Z,3.37
2023-03-05T15:19:43.717Z,3.52
2023-03-05T15:22:12.206Z,3.51
2023-03-05T15:24:39.047Z,3.66
2023-03-05T15:27:05.936Z,3.21
2023-03-05T15:29:33.271Z,2.96
2023-03-05T15:32:00.101Z,2.93
2023-03-05T15:34:27.575Z,2.99
2023-03-05T15:36:54.321Z,3.18
2023-03-05T15:39:21.024Z,3.35
2023-03-05T15:41:47.622Z,3.29
2023-03-05T15:44:14.268Z,3.28
2023-03-05T15:46:41.017Z,3.37
2023-03-05T15:49:07.698Z,3.07
2023-03-05T15:51:34.688Z,2.97
2023-03-05T15:54:01.365Z,3.17
2023-03-05T15:56:28.036Z,2.99
2023-03-05T15:58:54.654Z,3.06
2023-03-05T16:01:21.357Z,3.08
2023-03-05T16:03:48.027Z,3.26
2023-03-05T16:08:51.572Z,2.91
2023-03-05T16:11:18.966Z,2.91
2023-03-05T16:13:45.693Z,2.85
2023-03-05T16:16:13.119Z,2.66
2023-03-05T16:18:44.352Z,2.68
2023-03-05T16:21:11.993Z,2.55
2023-03-05T16:23:38.696Z,2.64
2023-03-05T16:26:05.546Z,2.74
2023-03-05T16:28:32.209Z,2.72
2023-03-05T16:30:58.901Z,2.61
2023-03-05T16:33:25.671Z,2.67
2023-03-05T16:36:10.686Z,2.42
2023-03-05T16:38:39.472Z,2.64
2023-03-05T16:41:08.518Z,2.39
2023-03-05T16:43:35.478Z,2.18
2023-03-05T16:46:02.094Z,2.32
2023-03-05T16:48:29.762Z,2.13
2023-03-05T16:50:56.393Z,2.12
2023-03-05T16:53:23.487Z,1.91
2023-03-05T16:55:53.077Z,2.28
2023-03-05T16:58:21.876Z,1.94
2023-03-05T17:00:48.906Z,2.18
2023-03-05T17:03:15.754Z,2.08
2023-03-05T17:05:42.408Z,2.02
2023-03-05T17:08:11.027Z,1.89
2023-03-05T17:10:37.749Z,1.90
2023-03-05T17:13:04.473Z,1.96
2023-03-05T17:15:31.189Z,1.87
2023-03-05T17:17:57.805Z,1.76
2023-03-05T17:20:24.433Z,1.87
2023-03-05T17:22:51.048Z,1.82
2023-03-05T17:25:17.891Z,1.88
2023-03-05T17:27:44.566Z,1.88
2023-03-05T17:30:11.804Z,1.79
2023-03-05T17:32:38.530Z,1.80
2023-03-05T17:35:05.829Z,1.73
2023-03-05T17:37:32.591Z,1.65
2023-03-05T17:40:01.817Z,1.59
2023-03-05T17:42:28.596Z,1.53
2023-03-05T17:44:55.201Z,1.91
2023-03-05T17:47:21.798Z,1.57
2023-03-05T17:49:48.467Z,1.64
2023-03-05T17:52:15.074Z,1.60
2023-03-05T17:54:41.711Z,1.61
2023-03-05T17:57:13.287Z,1.69
2023-03-05T17:59:39.910Z,1.75
2023-03-05T18:02:07.252Z,1.74
2023-03-05T18:04:33.943Z,1.97
2023-03-05T18:07:00.633Z,1.84
2023-03-05T18:09:27.365Z,1.79
2023-03-05T18:11:53.977Z,1.78
2023-03-05T18:14:20.623Z,1.65
2023-03-05T18:16:48.838Z,1.70
2023-03-05T18:19:15.871Z,1.56
2023-03-05T18:21:42.698Z,1.73
2023-03-05T18:24:09.653Z,1.88
2023-03-05T18:26:43.902Z,1.67
2023-03-05T18:29:10.603Z,1.63
2023-03-05T18:31:37.328Z,1.68
2023-03-05T18:34:04.077Z,1.85
2023-03-05T18:36:30.782Z,1.79
2023-03-05T18:38:57.402Z,1.60
2023-03-05T18:41:27.620Z,1.64
2023-03-05T18:43:54.685Z,1.56
2023-03-05T18:46:21.404Z,1.90
2023-03-05T18:48:49.796Z,1.72
2023-03-05T18:51:19.186Z,1.85
2023-03-05T18:53:46.435Z,1.74
2023-03-05T18:56:13.304Z,1.89
2023-03-05T18:58:40.542Z,1.93
2023-03-05T19:01:07.213Z,1.63
2023-03-05T19:03:33.846Z,1.55
2023-03-05T19:06:05.304Z,1.73
2023-03-05T19:08:32.086Z,1.79
2023-03-05T19:10:58.685Z,2.07
2023-03-05T19:13:27.823Z,2.16
2023-03-05T19:15:54.688Z,1.78
2023-03-05T19:18:26.795Z,1.67
2023-03-05T19:20:55.022Z,1.76
2023-03-05T19:23:22.026Z,2.13
2023-03-05T19:25:48.790Z,1.97
2023-03-05T19:28:15.526Z,2.57
2023-03-05T19:30:42.372Z,2.61
2023-03-05T19:33:09.060Z,2.32
2023-03-05T19:35:35.684Z,2.05
2023-03-05T19:38:02.304Z,1.91
2023-03-05T19:40:28.956Z,2.10
2023-03-05T19:42:55.631Z,1.81
2023-03-05T19:45:22.283Z,1.85
2023-03-05T19:47:49.102Z,2.51
2023-03-05T19:50:16.134Z,1.81
2023-03-05T19:52:42.773Z,1.90
2023-03-05T19:55:09.953Z,1.79
2023-03-05T19:57:36.880Z,2.47
2023-03-05T20:00:04.567Z,2.82
2023-03-05T20:02:31.628Z,2.56
2023-03-05T20:04:58.253Z,2.73
2023-03-05T20:07:25.154Z,2.41
2023-03-05T20:09:51.836Z,1.91
2023-03-05T20:12:21.812Z,1.72
2023-03-05T20:14:48.509Z,2.04
2023-03-05T20:17:15.933Z,2.49
2023-03-05T20:19:42.633Z,2.57
2023-03-05T20:22:09.302Z,2.74
2023-03-05T20:24:36.096Z,2.80
2023-03-05T20:27:02.754Z,1.96
2023-03-05T20:29:29.502Z,1.77
2023-03-05T20:31:56.172Z,2.06
2023-03-05T20:34:22.935Z,2.15
2023-03-05T20:36:49.860Z,2.56
2023-03-05T20:39:16.584Z,2.71
2023-03-05T20:41:43.236Z,2.13
2023-03-05T20:44:09.979Z,1.34
2023-03-05T20:46:43.143Z,1.69
2023-03-05T20:49:09.813Z,1.86
2023-03-05T20:51:40.113Z,2.08
2023-03-05T20:54:10.612Z,1.33
2023-03-05T20:56:37.834Z,0.99
2023-03-05T20:59:06.416Z,1.65
2023-03-05T21:01:34.778Z,1.50
2023-03-05T21:04:01.909Z,2.04
2023-03-05T21:06:32.449Z,2.15
2023-03-05T21:08:59.972Z,1.78
2023-03-05T21:11:27.617Z,1.17
2023-03-05T21:13:54.406Z,1.92
2023-03-05T21:16:24.263Z,1.62
2023-03-05T21:18:51.729Z,1.15
2023-03-05T21:21:19.338Z,1.27
2023-03-05T21:23:46.203Z,1.02
2023-03-05T21:26:13.580Z,1.51
2023-03-05T21:28:40.779Z,1.80
2023-03-05T21:31:16.997Z,2.34
2023-03-05T21:33:43.969Z,1.76
2023-03-05T21:36:10.635Z,1.80
2023-03-05T21:38:37.293Z,1.48
2023-03-05T21:41:05.788Z,1.31
2023-03-05T21:43:32.836Z,0.86
2023-03-05T21:46:01.712Z,1.24
2023-03-05T21:48:29.110Z,1.71
2023-03-05T21:50:56.280Z,1.59
2023-03-05T21:53:23.663Z,2.00
2023-03-05T21:56:05.361Z,1.82
2023-03-05T21:58:33.450Z,1.84
2023-03-05T22:01:00.572Z,1.97
2023-03-05T22:03:28.518Z,2.28
2023-03-05T22:05:56.557Z,2.51
2023-03-05T22:08:23.623Z,2.68
2023-03-05T22:10:50.734Z,2.14
2023-03-05T22:13:17.574Z,1.73
2023-03-05T22:15:51.994Z,1.25
2023-03-05T22:18:21.039Z,1.79
2023-03-05T22:20:48.401Z,1.80
2023-03-05T22:23:15.926Z,2.22
2023-03-05T22:25:43.858Z,2.56
2023-03-05T22:28:12.573Z,2.04
2023-03-05T22:30:45.651Z,2.04
2023-03-05T22:33:13.072Z,2.11
2023-03-05T22:35:40.674Z,2.12
2023-03-05T22:38:10.884Z,1.87
2023-03-05T22:40:42.792Z,1.37
2023-03-05T22:43:09.582Z,1.87
2023-03-05T22:45:36.527Z,1.73
2023-03-05T22:48:03.473Z,1.74
2023-03-05T22:50:30.184Z,2.00
2023-03-05T22:52:56.920Z,1.67
2023-03-05T22:55:23.793Z,2.38
2023-03-05T22:57:50.583Z,2.32
2023-03-05T23:00:20.683Z,2.45
2023-03-05T23:02:47.749Z,2.46
2023-03-05T23:05:14.442Z,2.57
2023-03-05T23:07:43.078Z,2.33
2023-03-05T23:10:21.759Z,2.48
2023-03-05T23:12:51.412Z,1.84
2023-03-05T23:15:24.551Z,1.14
2023-03-05T23:17:51.462Z,1.88
2023-03-05T23:20:21.024Z,1.47
2023-03-05T23:22:52.091Z,1.10
2023-03-05T23:25:19.073Z,1.11
2023-03-05T23:27:46.321Z,1.47
2023-03-05T23:30:18.390Z,1.50
2023-03-05T23:33:03.264Z,1.88
2023-03-05T23:35:36.727Z,2.42
2023-03-05T23:38:07.080Z,2.07
2023-03-05T23:40:46.157Z,1.63
2023-03-05T23:43:14.914Z,1.50
2023-03-05T23:45:43.278Z,0.91
2023-03-05T23:48:10.534Z,0.99
2023-03-05T23:50:40.842Z,0.82
2023-03-05T23:53:08.411Z,0.83
2023-03-05T23:55:44.573Z,0.91
2023-03-05T23:58:11.982Z,0.92
